sensor_id;sensor_type;location;lat;lon;timestamp;temperature;humidity
15543;DHT22;7873;52.230;12.856;2024-01-15T00:01:36;28.30;29.30
15543;DHT22;7873;52.230;12.856;2024-01-15T00:04:03;28.30;29.90
15543;DHT22;7873;52.230;12.856;2024-01-15T00:06:29;28.20;29.80
15543;DHT22;7873;52.230;12.856;2024-01-15T00:08:58;28.20;30.00
15543;DHT22;7873;52.230;12.856;2024-01-15T00:11:24;28.20;30.00
15543;DHT22;7873;52.230;12.856;2024-01-15T00:13:52;28.20;30.00
15543;DHT22;7873;52.230;12.856;2024-01-15T00:16:19;28.10;30.00
15543;DHT22;7873;52.230;12.856;2024-01-15T00:18:45;28.00;30.10
15543;DHT22;7873;52.230;12.856;2024-01-15T00:21:11;28.00;30.30
15543;DHT22;7873;52.230;12.856;2024-01-15T00:23:42;27.90;30.30
15543;DHT22;7873;52.230;12.856;2024-01-15T00:26:09;27.90;30.40
15543;DHT22;7873;52.230;12.856;2024-01-15T00:28:35;27.80;30.40
15543;DHT22;7873;52.230;12.856;2024-01-15T00:31:04;27.70;30.60
15543;DHT22;7873;52.230;12.856;2024-01-15T00:33:31;27.70;30.60
15543;DHT22;7873;52.230;12.856;2024-01-15T00:35:57;27.60;30.60
15543;DHT22;7873;52.230;12.856;2024-01-15T00:38:24;27.60;30.70
15543;DHT22;7873;52.230;12.856;2024-01-15T00:40:51;27.50;30.90
15543;DHT22;7873;52.230;12.856;2024-01-15T00:43:17;27.50;30.90
15543;DHT22;7873;52.230;12.856;2024-01-15T00:45:44;27.40;30.90
15543;DHT22;7873;52.230;12.856;2024-01-15T00:48:12;27.30;31.00
15543;DHT22;7873;52.230;12.856;2024-01-15T00:50:38;27.30;31.10
15543;DHT22;7873;52.230;12.856;2024-01-15T00:53:05;27.30;31.30
15543;DHT22;7873;52.230;12.856;2024-01-15T00:55:31;27.30;31.30
15543;DHT22;7873;52.230;12.856;2024-01-15T00:57:58;27.20;31.30
15543;DHT22;7873;52.230;12.856;2024-01-15T01:00:24;27.20;31.40
15543;DHT22;7873;52.230;12.856;2024-01-15T01:02:51;27.20;31.30
15543;DHT22;7873;52.230;12.856;2024-01-15T01:05:19;27.10;31.50
15543;DHT22;7873;52.230;12.856;2024-01-15T01:07:45;27.10;31.60
15543;DHT22;7873;52.230;12.856;2024-01-15T01:10:12;27.00;31.50
15543;DHT22;7873;52.230;12.856;2024-01-15T01:12:38;27.00;31.60
15543;DHT22;7873;52.230;12.856;2024-01-15T01:15:05;26.90;31.60
15543;DHT22;7873;52.230;12.856;2024-01-15T01:17:31;26.90;31.80
15543;DHT22;7873;52.230;12.856;2024-01-15T01:19:58;26.90;31.90
15543;DHT22;7873;52.230;12.856;2024-01-15T01:22:26;26.80;31.90
15543;DHT22;7873;52.230;12.856;2024-01-15T01:24:52;26.70;31.90
15543;DHT22;7873;52.230;12.856;2024-01-15T01:27:19;26.70;31.90
15543;DHT22;7873;52.230;12.856;2024-01-15T01:29:45;26.70;32.00
15543;DHT22;7873;52.230;12.856;2024-01-15T01:32:12;26.70;32.10
15543;DHT22;7873;52.230;12.856;2024-01-15T01:34:40;26.60;32.10
15543;DHT22;7873;52.230;12.856;2024-01-15T01:37:07;26.60;32.20
15543;DHT22;7873;52.230;12.856;2024-01-15T01:39:35;26.50;32.20
15543;DHT22;7873;52.230;12.856;2024-01-15T01:42:01;26.50;32.30
15543;DHT22;7873;52.230;12.856;2024-01-15T01:44:28;26.50;32.30
15543;DHT22;7873;52.230;12.856;2024-01-15T01:46:54;26.40;32.30
15543;DHT22;7873;52.230;12.856;2024-01-15T01:49:22;26.40;32.30
15543;DHT22;7873;52.230;12.856;2024-01-15T01:51:50;26.30;31.70
15543;DHT22;7873;52.230;12.856;2024-01-15T01:54:17;26.30;33.10
15543;DHT22;7873;52.230;12.856;2024-01-15T01:56:45;26.30;32.50
15543;DHT22;7873;52.230;12.856;2024-01-15T01:59:13;26.30;32.60
15543;DHT22;7873;52.230;12.856;2024-01-15T02:01:40;26.20;32.00
15543;DHT22;7873;52.230;12.856;2024-01-15T02:04:07;26.20;32.70
15543;DHT22;7873;52.230;12.856;2024-01-15T02:06:34;26.20;32.70
15543;DHT22;7873;52.230;12.856;2024-01-15T02:09:01;26.10;33.50
15543;DHT22;7873;52.230;12.856;2024-01-15T02:11:28;26.10;32.80
15543;DHT22;7873;52.230;12.856;2024-01-15T02:13:55;26.10;32.80
15543;DHT22;7873;52.230;12.856;2024-01-15T02:16:22;26.00;32.90
15543;DHT22;7873;52.230;12.856;2024-01-15T02:18:48;26.00;32.90
15543;DHT22;7873;52.230;12.856;2024-01-15T02:21:15;26.00;32.90
15543;DHT22;7873;52.230;12.856;2024-01-15T02:23:43;26.00;33.00
15543;DHT22;7873;52.230;12.856;2024-01-15T02:26:09;25.90;33.00
15543;DHT22;7873;52.230;12.856;2024-01-15T02:28:36;25.90;33.00
15543;DHT22;7873;52.230;12.856;2024-01-15T02:31:02;25.90;33.10
15543;DHT22;7873;52.230;12.856;2024-01-15T02:33:28;25.80;33.10
15543;DHT22;7873;52.230;12.856;2024-01-15T02:35:55;25.80;33.10
15543;DHT22;7873;52.230;12.856;2024-01-15T02:38:21;25.80;33.20
15543;DHT22;7873;52.230;12.856;2024-01-15T02:40:49;25.80;33.20
15543;DHT22;7873;52.230;12.856;2024-01-15T02:43:16;25.70;33.20
15543;DHT22;7873;52.230;12.856;2024-01-15T02:45:44;25.70;33.30
15543;DHT22;7873;52.230;12.856;2024-01-15T02:48:10;25.70;33.30
15543;DHT22;7873;52.230;12.856;2024-01-15T02:50:37;25.70;33.30
15543;DHT22;7873;52.230;12.856;2024-01-15T02:53:04;25.60;33.30
15543;DHT22;7873;52.230;12.856;2024-01-15T02:55:31;25.60;33.30
15543;DHT22;7873;52.230;12.856;2024-01-15T02:57:59;25.60;33.50
15543;DHT22;7873;52.230;12.856;2024-01-15T03:00:25;25.60;33.40
15543;DHT22;7873;52.230;12.856;2024-01-15T03:02:52;25.50;33.50
15543;DHT22;7873;52.230;12.856;2024-01-15T03:05:17;25.50;33.50
15543;DHT22;7873;52.230;12.856;2024-01-15T03:07:44;25.50;33.50
15543;DHT22;7873;52.230;12.856;2024-01-15T03:10:10;25.50;33.50
15543;DHT22;7873;52.230;12.856;2024-01-15T03:12:37;25.40;32.80
15543;DHT22;7873;52.230;12.856;2024-01-15T03:15:05;25.40;33.50
15543;DHT22;7873;52.230;12.856;2024-01-15T03:17:31;25.40;33.60
15543;DHT22;7873;52.230;12.856;2024-01-15T03:19:58;25.40;33.60
15543;DHT22;7873;52.230;12.856;2024-01-15T03:22:24;25.40;34.30
15543;DHT22;7873;52.230;12.856;2024-01-15T03:24:52;25.30;33.60
15543;DHT22;7873;52.230;12.856;2024-01-15T03:27:18;25.30;33.60
15543;DHT22;7873;52.230;12.856;2024-01-15T03:29:45;25.30;33.50
15543;DHT22;7873;52.230;12.856;2024-01-15T03:32:12;25.30;33.60
15543;DHT22;7873;52.230;12.856;2024-01-15T03:34:41;25.20;33.60
15543;DHT22;7873;52.230;12.856;2024-01-15T03:37:07;25.20;33.60
15543;DHT22;7873;52.230;12.856;2024-01-15T03:39:34;25.20;33.60
15543;DHT22;7873;52.230;12.856;2024-01-15T03:42:00;25.20;34.40
15543;DHT22;7873;52.230;12.856;2024-01-15T03:44:27;25.20;33.70
15543;DHT22;7873;52.230;12.856;2024-01-15T03:46:53;25.20;33.80
15543;DHT22;7873;52.230;12.856;2024-01-15T03:49:21;25.20;33.80
15543;DHT22;7873;52.230;12.856;2024-01-15T03:51:47;25.20;33.90
15543;DHT22;7873;52.230;12.856;2024-01-15T03:54:14;25.20;34.00
15543;DHT22;7873;52.230;12.856;2024-01-15T03:56:40;25.20;33.30
15543;DHT22;7873;52.230;12.856;2024-01-15T03:59:07;25.30;33.20
15543;DHT22;7873;52.230;12.856;2024-01-15T04:01:33;25.30;32.90
15543;DHT22;7873;52.230;12.856;2024-01-15T04:04:00;25.40;32.80
15543;DHT22;7873;52.230;12.856;2024-01-15T04:06:28;25.40;32.60
15543;DHT22;7873;52.230;12.856;2024-01-15T04:08:54;25.50;32.60
15543;DHT22;7873;52.230;12.856;2024-01-15T04:11:21;25.50;31.80
15543;DHT22;7873;52.230;12.856;2024-01-15T04:13:47;25.50;32.50
15543;DHT22;7873;52.230;12.856;2024-01-15T04:16:14;25.50;32.50
15543;DHT22;7873;52.230;12.856;2024-01-15T04:18:40;25.50;32.40
15543;DHT22;7873;52.230;12.856;2024-01-15T04:21:07;25.50;32.40
15543;DHT22;7873;52.230;12.856;2024-01-15T04:23:35;25.50;32.50
15543;DHT22;7873;52.230;12.856;2024-01-15T04:26:01;25.50;32.40
15543;DHT22;7873;52.230;12.856;2024-01-15T04:28:27;25.50;32.50
15543;DHT22;7873;52.230;12.856;2024-01-15T04:30:54;25.50;31.10
15543;DHT22;7873;52.230;12.856;2024-01-15T04:33:20;25.40;31.70
15543;DHT22;7873;52.230;12.856;2024-01-15T04:35:47;25.30;33.20
15543;DHT22;7873;52.230;12.856;2024-01-15T04:38:13;25.30;32.70
15543;DHT22;7873;52.230;12.856;2024-01-15T04:40:41;25.30;32.90
15543;DHT22;7873;52.230;12.856;2024-01-15T04:43:08;25.30;32.80
15543;DHT22;7873;52.230;12.856;2024-01-15T04:45:34;25.30;33.00
15543;DHT22;7873;52.230;12.856;2024-01-15T04:48:01;25.30;33.00
15543;DHT22;7873;52.230;12.856;2024-01-15T04:50:28;25.20;32.10
15543;DHT22;7873;52.230;12.856;2024-01-15T04:52:54;25.20;32.90
15543;DHT22;7873;52.230;12.856;2024-01-15T04:55:21;25.20;33.00
15543;DHT22;7873;52.230;12.856;2024-01-15T04:57:49;25.20;32.90
15543;DHT22;7873;52.230;12.856;2024-01-15T05:00:15;25.20;32.90
15543;DHT22;7873;52.230;12.856;2024-01-15T05:02:42;25.20;32.90
15543;DHT22;7873;52.230;12.856;2024-01-15T05:05:09;25.30;32.80
15543;DHT22;7873;52.230;12.856;2024-01-15T05:07:35;25.30;32.80
15543;DHT22;7873;52.230;12.856;2024-01-15T05:10:01;25.20;32.70
15543;DHT22;7873;52.230;12.856;2024-01-15T05:12:28;25.20;33.50
15543;DHT22;7873;52.230;12.856;2024-01-15T05:14:56;25.20;32.80
15543;DHT22;7873;52.230;12.856;2024-01-15T05:17:23;25.00;30.80
15543;DHT22;7873;52.230;12.856;2024-01-15T05:19:49;24.70;29.90
15543;DHT22;7873;52.230;12.856;2024-01-15T05:22:16;24.40;29.90
15543;DHT22;7873;52.230;12.856;2024-01-15T05:24:42;24.40;30.90
15543;DHT22;7873;52.230;12.856;2024-01-15T05:27:09;24.50;30.50
15543;DHT22;7873;52.230;12.856;2024-01-15T05:29:35;24.50;31.10
15543;DHT22;7873;52.230;12.856;2024-01-15T05:32:03;24.50;31.40
15543;DHT22;7873;52.230;12.856;2024-01-15T05:34:30;24.60;31.30
15543;DHT22;7873;52.230;12.856;2024-01-15T05:36:56;24.60;31.50
15543;DHT22;7873;52.230;12.856;2024-01-15T05:39:23;24.60;31.50
15543;DHT22;7873;52.230;12.856;2024-01-15T05:41:49;24.70;31.60
15543;DHT22;7873;52.230;12.856;2024-01-15T05:44:15;24.70;31.50
15543;DHT22;7873;52.230;12.856;2024-01-15T05:46:42;24.70;31.40
15543;DHT22;7873;52.230;12.856;2024-01-15T05:49:10;24.70;31.40
15543;DHT22;7873;52.230;12.856;2024-01-15T05:51:36;24.60;31.40
15543;DHT22;7873;52.230;12.856;2024-01-15T05:54:03;24.60;31.50
15543;DHT22;7873;52.230;12.856;2024-01-15T05:56:29;24.60;31.50
15543;DHT22;7873;52.230;12.856;2024-01-15T05:58:56;24.60;31.50
15543;DHT22;7873;52.230;12.856;2024-01-15T06:01:22;24.60;31.60
15543;DHT22;7873;52.230;12.856;2024-01-15T06:03:49;24.50;31.70
15543;DHT22;7873;52.230;12.856;2024-01-15T06:06:17;24.60;31.60
15543;DHT22;7873;52.230;12.856;2024-01-15T06:08:43;24.50;29.10
15543;DHT22;7873;52.230;12.856;2024-01-15T06:11:10;23.70;26.90
15543;DHT22;7873;52.230;12.856;2024-01-15T06:13:36;21.70;26.80
15543;DHT22;7873;52.230;12.856;2024-01-15T06:16:03;20.50;28.30
15543;DHT22;7873;52.230;12.856;2024-01-15T06:18:39;19.80;28.90
15543;DHT22;7873;52.230;12.856;2024-01-15T06:21:05;19.10;29.70
15543;DHT22;7873;52.230;12.856;2024-01-15T06:23:33;18.60;30.60
15543;DHT22;7873;52.230;12.856;2024-01-15T06:26:00;18.50;31.00
15543;DHT22;7873;52.230;12.856;2024-01-15T06:28:28;18.10;31.50
15543;DHT22;7873;52.230;12.856;2024-01-15T06:30:55;18.80;31.00
15543;DHT22;7873;52.230;12.856;2024-01-15T06:33:21;18.80;31.60
15543;DHT22;7873;52.230;12.856;2024-01-15T06:35:48;19.30;31.20
15543;DHT22;7873;52.230;12.856;2024-01-15T06:38:14;19.80;30.80
15543;DHT22;7873;52.230;12.856;2024-01-15T06:40:42;20.20;30.40
15543;DHT22;7873;52.230;12.856;2024-01-15T06:43:10;20.50;30.10
15543;DHT22;7873;52.230;12.856;2024-01-15T06:45:37;20.70;30.00
15543;DHT22;7873;52.230;12.856;2024-01-15T06:48:04;20.90;30.00
15543;DHT22;7873;52.230;12.856;2024-01-15T06:50:31;21.00;30.00
15543;DHT22;7873;52.230;12.856;2024-01-15T06:52:57;21.10;29.60
15543;DHT22;7873;52.230;12.856;2024-01-15T06:55:24;21.20;30.10
15543;DHT22;7873;52.230;12.856;2024-01-15T06:57:52;21.20;30.10
15543;DHT22;7873;52.230;12.856;2024-01-15T07:00:18;21.30;30.90
15543;DHT22;7873;52.230;12.856;2024-01-15T07:02:45;21.40;30.20
15543;DHT22;7873;52.230;12.856;2024-01-15T07:05:12;21.40;31.00
15543;DHT22;7873;52.230;12.856;2024-01-15T07:07:38;21.50;30.30
15543;DHT22;7873;52.230;12.856;2024-01-15T07:10:05;21.50;30.40
15543;DHT22;7873;52.230;12.856;2024-01-15T07:12:32;21.50;31.10
15543;DHT22;7873;52.230;12.856;2024-01-15T07:15:00;21.60;30.40
15543;DHT22;7873;52.230;12.856;2024-01-15T07:17:27;21.60;30.50
15543;DHT22;7873;52.230;12.856;2024-01-15T07:19:54;21.60;30.50
15543;DHT22;7873;52.230;12.856;2024-01-15T07:22:20;21.60;30.00
15543;DHT22;7873;52.230;12.856;2024-01-15T07:24:46;21.60;30.70
15543;DHT22;7873;52.230;12.856;2024-01-15T07:27:13;21.60;30.70
15543;DHT22;7873;52.230;12.856;2024-01-15T07:29:39;21.60;30.80
15543;DHT22;7873;52.230;12.856;2024-01-15T07:32:07;21.70;30.80
15543;DHT22;7873;52.230;12.856;2024-01-15T07:34:34;21.70;30.80
15543;DHT22;7873;52.230;12.856;2024-01-15T07:37:00;21.70;30.80
15543;DHT22;7873;52.230;12.856;2024-01-15T07:39:27;21.70;30.90
15543;DHT22;7873;52.230;12.856;2024-01-15T07:41:54;21.70;30.90
15543;DHT22;7873;52.230;12.856;2024-01-15T07:44:20;21.70;30.90
15543;DHT22;7873;52.230;12.856;2024-01-15T07:46:47;21.80;30.90
15543;DHT22;7873;52.230;12.856;2024-01-15T07:49:14;21.80;30.90
15543;DHT22;7873;52.230;12.856;2024-01-15T07:51:42;21.80;30.90
15543;DHT22;7873;52.230;12.856;2024-01-15T07:54:09;21.80;30.90
15543;DHT22;7873;52.230;12.856;2024-01-15T07:59:22;21.90;31.00
15543;DHT22;7873;52.230;12.856;2024-01-15T08:01:48;21.80;30.90
15543;DHT22;7873;52.230;12.856;2024-01-15T08:04:16;21.90;31.00
15543;DHT22;7873;52.230;12.856;2024-01-15T08:06:43;21.90;30.90
15543;DHT22;7873;52.230;12.856;2024-01-15T08:09:10;21.90;30.90
15543;DHT22;7873;52.230;12.856;2024-01-15T08:11:39;21.90;30.90
15543;DHT22;7873;52.230;12.856;2024-01-15T08:14:05;21.90;30.90
15543;DHT22;7873;52.230;12.856;2024-01-15T08:16:32;21.90;30.90
15543;DHT22;7873;52.230;12.856;2024-01-15T08:18:58;21.90;30.90
15543;DHT22;7873;52.230;12.856;2024-01-15T08:21:26;21.90;30.20
15543;DHT22;7873;52.230;12.856;2024-01-15T08:23:55;21.90;30.90
15543;DHT22;7873;52.230;12.856;2024-01-15T08:26:22;21.90;30.90
15543;DHT22;7873;52.230;12.856;2024-01-15T08:28:48;21.90;30.90
15543;DHT22;7873;52.230;12.856;2024-01-15T08:31:15;21.90;30.30
15543;DHT22;7873;52.230;12.856;2024-01-15T08:33:42;21.90;30.90
15543;DHT22;7873;52.230;12.856;2024-01-15T08:36:09;21.90;31.00
15543;DHT22;7873;52.230;12.856;2024-01-15T08:38:37;21.90;31.00
15543;DHT22;7873;52.230;12.856;2024-01-15T08:41:03;21.90;31.00
15543;DHT22;7873;52.230;12.856;2024-01-15T08:43:30;21.90;31.00
15543;DHT22;7873;52.230;12.856;2024-01-15T08:45:57;21.90;31.00
15543;DHT22;7873;52.230;12.856;2024-01-15T08:48:24;21.80;31.00
15543;DHT22;7873;52.230;12.856;2024-01-15T08:50:52;21.80;31.10
15543;DHT22;7873;52.230;12.856;2024-01-15T08:53:19;21.90;31.10
15543;DHT22;7873;52.230;12.856;2024-01-15T08:55:47;21.80;31.10
15543;DHT22;7873;52.230;12.856;2024-01-15T08:58:14;21.90;31.10
15543;DHT22;7873;52.230;12.856;2024-01-15T09:00:41;21.90;31.10
15543;DHT22;7873;52.230;12.856;2024-01-15T09:03:07;21.80;31.10
15543;DHT22;7873;52.230;12.856;2024-01-15T09:05:34;21.90;31.00
15543;DHT22;7873;52.230;12.856;2024-01-15T09:08:00;21.80;31.10
15543;DHT22;7873;52.230;12.856;2024-01-15T09:10:27;21.80;31.20
15543;DHT22;7873;52.230;12.856;2024-01-15T09:12:54;21.80;31.20
15543;DHT22;7873;52.230;12.856;2024-01-15T09:15:21;21.80;31.20
15543;DHT22;7873;52.230;12.856;2024-01-15T09:17:48;21.80;31.20
15543;DHT22;7873;52.230;12.856;2024-01-15T09:20:15;21.70;31.20
15543;DHT22;7873;52.230;12.856;2024-01-15T09:22:41;21.80;31.20
15543;DHT22;7873;52.230;12.856;2024-01-15T09:25:08;21.80;31.20
15543;DHT22;7873;52.230;12.856;2024-01-15T09:27:35;21.80;31.20
15543;DHT22;7873;52.230;12.856;2024-01-15T09:30:03;21.70;31.20
15543;DHT22;7873;52.230;12.856;2024-01-15T09:32:31;21.80;31.20
15543;DHT22;7873;52.230;12.856;2024-01-15T09:34:58;21.80;31.20
15543;DHT22;7873;52.230;12.856;2024-01-15T09:37:24;21.70;31.20
15543;DHT22;7873;52.230;12.856;2024-01-15T09:39:51;21.70;31.20
15543;DHT22;7873;52.230;12.856;2024-01-15T09:42:17;21.70;31.20
15543;DHT22;7873;52.230;12.856;2024-01-15T09:44:45;21.70;31.30
15543;DHT22;7873;52.230;12.856;2024-01-15T09:47:13;21.70;31.30
15543;DHT22;7873;52.230;12.856;2024-01-15T09:49:42;21.60;31.30
15543;DHT22;7873;52.230;12.856;2024-01-15T09:52:08;21.70;31.40
15543;DHT22;7873;52.230;12.856;2024-01-15T09:54:37;21.70;31.30
15543;DHT22;7873;52.230;12.856;2024-01-15T09:57:05;21.70;31.30
15543;DHT22;7873;52.230;12.856;2024-01-15T09:59:31;21.60;31.20
15543;DHT22;7873;52.230;12.856;2024-01-15T10:01:58;21.60;31.30
15543;DHT22;7873;52.230;12.856;2024-01-15T10:04:28;21.60;31.40
15543;DHT22;7873;52.230;12.856;2024-01-15T10:06:54;21.60;31.30
15543;DHT22;7873;52.230;12.856;2024-01-15T10:09:23;21.60;31.30
15543;DHT22;7873;52.230;12.856;2024-01-15T10:11:49;21.60;31.30
15543;DHT22;7873;52.230;12.856;2024-01-15T10:14:16;21.60;31.30
15543;DHT22;7873;52.230;12.856;2024-01-15T10:16:42;21.60;31.40
15543;DHT22;7873;52.230;12.856;2024-01-15T10:19:09;21.60;31.40
15543;DHT22;7873;52.230;12.856;2024-01-15T10:21:37;21.60;31.40
15543;DHT22;7873;52.230;12.856;2024-01-15T10:24:04;21.60;31.40
15543;DHT22;7873;52.230;12.856;2024-01-15T10:26:31;21.50;31.40
15543;DHT22;7873;52.230;12.856;2024-01-15T10:28:59;21.50;31.40
15543;DHT22;7873;52.230;12.856;2024-01-15T10:31:25;21.50;31.40
15543;DHT22;7873;52.230;12.856;2024-01-15T10:33:52;21.50;31.40
15543;DHT22;7873;52.230;12.856;2024-01-15T10:36:19;21.50;31.60
15543;DHT22;7873;52.230;12.856;2024-01-15T10:38:47;21.50;31.40
15543;DHT22;7873;52.230;12.856;2024-01-15T10:41:13;21.50;31.50
15543;DHT22;7873;52.230;12.856;2024-01-15T10:43:41;21.50;31.50
15543;DHT22;7873;52.230;12.856;2024-01-15T10:46:07;21.50;31.40
15543;DHT22;7873;52.230;12.856;2024-01-15T10:48:34;21.40;31.50
15543;DHT22;7873;52.230;12.856;2024-01-15T10:51:02;21.40;31.60
15543;DHT22;7873;52.230;12.856;2024-01-15T10:53:35;21.40;31.50
15543;DHT22;7873;52.230;12.856;2024-01-15T10:56:06;21.40;31.50
15543;DHT22;7873;52.230;12.856;2024-01-15T10:58:33;21.40;31.60
15543;DHT22;7873;52.230;12.856;2024-01-15T11:01:00;21.40;31.60
15543;DHT22;7873;52.230;12.856;2024-01-15T11:03:27;21.40;31.60
15543;DHT22;7873;52.230;12.856;2024-01-15T11:05:54;21.40;31.60
15543;DHT22;7873;52.230;12.856;2024-01-15T11:08:21;21.40;31.60
15543;DHT22;7873;52.230;12.856;2024-01-15T11:10:48;21.40;31.60
15543;DHT22;7873;52.230;12.856;2024-01-15T11:13:20;21.40;31.60
15543;DHT22;7873;52.230;12.856;2024-01-15T11:16:00;21.40;31.60
15543;DHT22;7873;52.230;12.856;2024-01-15T11:18:28;21.40;31.90
15543;DHT22;7873;52.230;12.856;2024-01-15T11:23:48;21.40;31.60
15543;DHT22;7873;52.230;12.856;2024-01-15T11:26:29;21.30;31.60
15543;DHT22;7873;52.230;12.856;2024-01-15T11:28:58;21.30;32.40
15543;DHT22;7873;52.230;12.856;2024-01-15T11:31:27;21.30;31.60
15543;DHT22;7873;52.230;12.856;2024-01-15T11:33:54;21.30;31.60
15543;DHT22;7873;52.230;12.856;2024-01-15T11:36:20;21.30;31.60
15543;DHT22;7873;52.230;12.856;2024-01-15T11:38:47;21.30;31.60
15543;DHT22;7873;52.230;12.856;2024-01-15T11:41:13;21.30;31.60
15543;DHT22;7873;52.230;12.856;2024-01-15T11:43:41;21.30;31.60
15543;DHT22;7873;52.230;12.856;2024-01-15T11:46:11;21.30;31.60
15543;DHT22;7873;52.230;12.856;2024-01-15T11:48:42;21.30;31.70
15543;DHT22;7873;52.230;12.856;2024-01-15T11:51:10;21.20;31.60
15543;DHT22;7873;52.230;12.856;2024-01-15T11:53:40;21.20;31.60
15543;DHT22;7873;52.230;12.856;2024-01-15T11:56:12;21.20;31.70
15543;DHT22;7873;52.230;12.856;2024-01-15T11:58:42;21.20;31.60
15543;DHT22;7873;52.230;12.856;2024-01-15T12:01:11;21.20;31.60
15543;DHT22;7873;52.230;12.856;2024-01-15T12:03:38;21.20;31.70
15543;DHT22;7873;52.230;12.856;2024-01-15T12:06:05;21.20;31.70
15543;DHT22;7873;52.230;12.856;2024-01-15T12:08:32;21.20;31.70
15543;DHT22;7873;52.230;12.856;2024-01-15T12:10:58;21.20;31.70
15543;DHT22;7873;52.230;12.856;2024-01-15T12:13:25;21.20;31.70
15543;DHT22;7873;52.230;12.856;2024-01-15T12:15:54;21.20;31.70
15543;DHT22;7873;52.230;12.856;2024-01-15T12:18:22;21.20;31.70
15543;DHT22;7873;52.230;12.856;2024-01-15T12:20:48;21.20;31.70
15543;DHT22;7873;52.230;12.856;2024-01-15T12:23:15;21.20;31.70
15543;DHT22;7873;52.230;12.856;2024-01-15T12:25:42;21.10;31.60
15543;DHT22;7873;52.230;12.856;2024-01-15T12:28:09;21.10;31.70
15543;DHT22;7873;52.230;12.856;2024-01-15T12:30:35;21.10;31.70
15543;DHT22;7873;52.230;12.856;2024-01-15T12:33:03;21.10;31.60
15543;DHT22;7873;52.230;12.856;2024-01-15T12:35:31;21.10;31.60
15543;DHT22;7873;52.230;12.856;2024-01-15T12:37:59;21.10;31.60
15543;DHT22;7873;52.230;12.856;2024-01-15T12:40:27;21.10;31.70
15543;DHT22;7873;52.230;12.856;2024-01-15T12:42:54;21.10;31.00
15543;DHT22;7873;52.230;12.856;2024-01-15T12:45:21;21.10;31.80
15543;DHT22;7873;52.230;12.856;2024-01-15T12:47:48;21.10;31.80
15543;DHT22;7873;52.230;12.856;2024-01-15T12:50:16;21.10;31.70
15543;DHT22;7873;52.230;12.856;2024-01-15T12:52:44;21.10;31.80
15543;DHT22;7873;52.230;12.856;2024-01-15T12:55:10;21.00;31.80
15543;DHT22;7873;52.230;12.856;2024-01-15T12:57:37;21.00;31.70
15543;DHT22;7873;52.230;12.856;2024-01-15T13:00:04;21.00;31.80
15543;DHT22;7873;52.230;12.856;2024-01-15T13:02:32;21.00;31.80
15543;DHT22;7873;52.230;12.856;2024-01-15T13:04:59;21.00;31.80
15543;DHT22;7873;52.230;12.856;2024-01-15T13:07:26;21.00;31.80
15543;DHT22;7873;52.230;12.856;2024-01-15T13:09:54;21.00;31.80
15543;DHT22;7873;52.230;12.856;2024-01-15T13:12:20;21.00;31.80
15543;DHT22;7873;52.230;12.856;2024-01-15T13:14:47;21.00;31.80
15543;DHT22;7873;52.230;12.856;2024-01-15T13:17:14;21.00;31.80
15543;DHT22;7873;52.230;12.856;2024-01-15T13:19:40;21.00;31.80
15543;DHT22;7873;52.230;12.856;2024-01-15T13:22:07;21.00;31.80
15543;DHT22;7873;52.230;12.856;2024-01-15T13:24:34;21.00;31.80
15543;DHT22;7873;52.230;12.856;2024-01-15T13:27:02;21.00;31.90
15543;DHT22;7873;52.230;12.856;2024-01-15T13:29:29;20.90;31.90
15543;DHT22;7873;52.230;12.856;2024-01-15T13:31:56;20.90;31.90
15543;DHT22;7873;52.230;12.856;2024-01-15T13:34:23;20.90;31.90
15543;DHT22;7873;52.230;12.856;2024-01-15T13:36:49;20.90;31.90
15543;DHT22;7873;52.230;12.856;2024-01-15T13:39:16;20.90;31.90
15543;DHT22;7873;52.230;12.856;2024-01-15T13:41:45;20.90;31.90
15543;DHT22;7873;52.230;12.856;2024-01-15T13:44:13;20.80;31.90
15543;DHT22;7873;52.230;12.856;2024-01-15T13:46:39;20.80;31.90
15543;DHT22;7873;52.230;12.856;2024-01-15T13:49:06;20.80;31.90
15543;DHT22;7873;52.230;12.856;2024-01-15T13:51:34;20.80;31.90
15543;DHT22;7873;52.230;12.856;2024-01-15T13:54:02;20.80;31.90
15543;DHT22;7873;52.230;12.856;2024-01-15T13:56:30;20.80;31.90
15543;DHT22;7873;52.230;12.856;2024-01-15T13:58:57;20.80;31.90
15543;DHT22;7873;52.230;12.856;2024-01-15T14:01:27;20.80;31.90
15543;DHT22;7873;52.230;12.856;2024-01-15T14:03:53;20.80;32.00
15543;DHT22;7873;52.230;12.856;2024-01-15T14:06:20;20.80;31.90
15543;DHT22;7873;52.230;12.856;2024-01-15T14:08:46;20.80;31.90
15543;DHT22;7873;52.230;12.856;2024-01-15T14:11:13;20.80;32.00
15543;DHT22;7873;52.230;12.856;2024-01-15T14:13:39;20.70;32.00
15543;DHT22;7873;52.230;12.856;2024-01-15T14:16:06;20.80;32.00
15543;DHT22;7873;52.230;12.856;2024-01-15T14:18:34;20.70;31.90
15543;DHT22;7873;52.230;12.856;2024-01-15T14:21:00;20.70;31.90
15543;DHT22;7873;52.230;12.856;2024-01-15T14:23:27;20.70;31.90
15543;DHT22;7873;52.230;12.856;2024-01-15T14:25:53;20.70;31.90
15543;DHT22;7873;52.230;12.856;2024-01-15T14:28:19;20.70;32.00
15543;DHT22;7873;52.230;12.856;2024-01-15T14:30:46;20.70;32.00
15543;DHT22;7873;52.230;12.856;2024-01-15T14:33:12;20.70;32.00
15543;DHT22;7873;52.230;12.856;2024-01-15T14:35:40;20.70;32.00
15543;DHT22;7873;52.230;12.856;2024-01-15T14:38:07;20.70;32.00
15543;DHT22;7873;52.230;12.856;2024-01-15T14:40:34;20.60;32.10
15543;DHT22;7873;52.230;12.856;2024-01-15T14:43:01;20.70;32.10
15543;DHT22;7873;52.230;12.856;2024-01-15T14:45:28;20.70;32.00
15543;DHT22;7873;52.230;12.856;2024-01-15T14:47:55;20.60;32.00
15543;DHT22;7873;52.230;12.856;2024-01-15T14:50:22;20.60;32.10
15543;DHT22;7873;52.230;12.856;2024-01-15T14:52:50;20.60;32.10
15543;DHT22;7873;52.230;12.856;2024-01-15T14:55:16;20.60;32.10
15543;DHT22;7873;52.230;12.856;2024-01-15T14:57:43;20.60;32.10
15543;DHT22;7873;52.230;12.856;2024-01-15T15:00:09;20.60;32.10
15543;DHT22;7873;52.230;12.856;2024-01-15T15:02:38;20.60;32.10
15543;DHT22;7873;52.230;12.856;2024-01-15T15:05:05;20.60;32.10
15543;DHT22;7873;52.230;12.856;2024-01-15T15:07:32;20.60;32.10
15543;DHT22;7873;52.230;12.856;2024-01-15T15:10:02;20.60;32.10
15543;DHT22;7873;52.230;12.856;2024-01-15T15:12:30;20.40;32.60
15543;DHT22;7873;52.230;12.856;2024-01-15T15:14:56;20.20;32.00
15543;DHT22;7873;52.230;12.856;2024-01-15T15:17:23;19.80;32.40
15543;DHT22;7873;52.230;12.856;2024-01-15T15:19:49;19.00;32.50
15543;DHT22;7873;52.230;12.856;2024-01-15T15:22:18;17.70;34.80
15543;DHT22;7873;52.230;12.856;2024-01-15T15:24:46;17.90;35.30
15543;DHT22;7873;52.230;12.856;2024-01-15T15:27:13;18.20;34.90
15543;DHT22;7873;52.230;12.856;2024-01-15T15:29:40;18.30;34.60
15543;DHT22;7873;52.230;12.856;2024-01-15T15:32:06;18.50;34.30
15543;DHT22;7873;52.230;12.856;2024-01-15T15:34:33;18.60;34.20